Time;durP1;ratioP1;P1;durP2;ratioP2;P2;SDS_P1;SDS_P2;PMS_P1;PMS_P2;Temp;Humidity;BMP_temperature;BMP_pressure;BME280_temperature;BME280_humidity;BME280_pressure;Samples;Min_cycle;Max_cycle;Signal;HPM_P1;HPM_P2
2022/05/27 00:02:11;;;;;;;;;;;;;;;23.30;73.80;97493.34;616333;230;63919;-74
2022/05/27 00:04:39;;;;;;;;;;;;;;;23.30;73.79;97496.02;616316;230;68698;-73
2022/05/27 00:07:06;;;;;;;;;;;;;;;23.30;74.04;97489.83;616390;230;68235;-73
2022/05/27 00:09:34;;;;;;;;;;;;;;;23.30;73.81;97490.66;615938;230;65110;-74
2022/05/27 00:12:01;;;;;;;;;;;;;;;23.30;73.90;97490.66;609776;231;68659;-74
2022/05/27 00:14:29;;;;;;;;;;;;;;;23.29;73.95;97494.39;609965;232;68815;-74
2022/05/27 00:16:57;;;;;;;;;;;;;;;23.29;73.77;97489.03;609963;232;65182;-73
2022/05/27 00:19:24;;;;;;;;;;;;;;;23.29;73.88;97485.55;610030;232;68637;-73
2022/05/27 00:21:52;;;;;;;;;;;;;;;23.30;73.87;97489.83;609965;232;68502;-74
2022/05/27 00:24:19;;;;;;;;;;;;;;;23.29;74.04;97493.60;609990;232;65382;-71
2022/05/27 00:26:47;;;;;;;;;;;;;;;23.29;74.12;97491.72;609999;232;68673;-71
2022/05/27 00:29:14;;;;;;;;;;;;;;;23.30;74.11;97487.15;609960;232;68757;-71
2022/05/27 00:31:42;;;;;;;;;;;;;;;23.28;74.10;97487.44;610038;230;65498;-71
2022/05/27 00:34:10;;;;;;;;;;;;;;;23.30;73.87;97495.20;609996;232;68356;-71
2022/05/27 00:36:38;;;;;;;;;;;;;;;23.29;74.06;97491.72;609964;232;66505;-71
2022/05/27 00:39:05;;;;;;;;;;;;;;;23.29;73.90;97480.19;609978;232;63043;-70
2022/05/27 00:41:33;;;;;;;;;;;;;;;23.29;74.03;97490.92;610002;232;66612;-70
2022/05/27 00:44:00;;;;;;;;;;;;;;;23.29;74.02;97494.39;609983;232;66405;-71
2022/05/27 00:46:29;;;;;;;;;;;;;;;23.29;73.90;97490.92;609994;232;63025;-71
2022/05/27 00:48:59;;;;;;;;;;;;;;;23.30;74.13;97497.88;609990;232;68600;-71
2022/05/27 00:51:29;;;;;;;;;;;;;;;23.29;73.98;97496.28;609783;231;68508;-70
2022/05/27 00:53:58;;;;;;;;;;;;;;;23.29;74.17;97482.88;609993;232;63459;-71
2022/05/27 00:56:27;;;;;;;;;;;;;;;23.28;74.33;97481.28;610067;232;66433;-70
2022/05/27 00:58:56;;;;;;;;;;;;;;;23.28;74.12;97478.60;609905;230;66165;-73
2022/05/27 01:01:23;;;;;;;;;;;;;;;23.28;74.19;97467.88;610020;232;63890;-73
2022/05/27 01:03:51;;;;;;;;;;;;;;;23.28;74.43;97492.00;609956;232;68809;-73
2022/05/27 01:06:19;;;;;;;;;;;;;;;23.27;74.06;97475.09;609954;232;66506;-73
2022/05/27 01:08:46;;;;;;;;;;;;;;;23.27;74.20;97475.09;609999;232;63002;-73
2022/05/27 01:11:15;;;;;;;;;;;;;;;23.28;74.12;97483.96;609988;232;68653;-73
2022/05/27 01:13:46;;;;;;;;;;;;;;;23.27;74.15;97477.77;609761;230;66444;-73
2022/05/27 01:16:27;;;;;;;;;;;;;;;23.28;74.24;97476.72;609703;231;65202;-73
2022/05/27 01:21:52;;;;;;;;;;;;;;;23.26;74.22;97474.30;613810;231;68354;-70
2022/05/27 01:24:38;;;;;;;;;;;;;;;23.27;74.42;97477.77;614056;228;65309;-72
2022/05/27 01:27:23;;;;;;;;;;;;;;;23.25;74.27;97480.75;613814;231;68657;-72
2022/05/27 01:29:53;;;;;;;;;;;;;;;23.26;74.37;97479.66;613817;231;66736;-71
2022/05/27 01:32:22;;;;;;;;;;;;;;;23.25;74.27;97475.38;614633;228;63202;-70
2022/05/27 01:34:52;;;;;;;;;;;;;;;23.25;74.25;97472.70;614694;228;68659;-71
2022/05/27 01:37:21;;;;;;;;;;;;;;;23.26;74.32;97476.17;613800;231;68625;-71
2022/05/27 01:39:53;;;;;;;;;;;;;;;23.24;74.28;97481.83;613938;228;65261;-70
2022/05/27 01:42:23;;;;;;;;;;;;;;;23.25;74.53;97475.38;613807;231;68805;-71
2022/05/27 01:44:55;;;;;;;;;;;;;;;23.24;74.43;97476.47;613843;231;69036;-71
2022/05/27 01:47:23;;;;;;;;;;;;;;;23.24;74.33;97479.16;613812;227;62975;-70
2022/05/27 01:49:52;;;;;;;;;;;;;;;23.25;74.49;97471.91;613932;228;66216;-70
2022/05/27 01:52:21;;;;;;;;;;;;;;;23.25;74.49;97471.91;613956;228;66373;-70
2022/05/27 01:55:02;;;;;;;;;;;;;;;23.24;74.48;97476.47;613763;231;63027;-70
2022/05/27 01:57:31;;;;;;;;;;;;;;;23.25;74.25;97477.27;613749;230;66645;-70
2022/05/27 02:00:00;;;;;;;;;;;;;;;23.24;74.30;97481.00;613861;231;66423;-70
2022/05/27 02:02:30;;;;;;;;;;;;;;;23.25;74.33;97474.59;613766;228;63067;-73
2022/05/27 02:05:08;;;;;;;;;;;;;;;23.24;74.38;97475.64;613828;231;68671;-73
2022/05/27 02:07:40;;;;;;;;;;;;;;;23.24;74.53;97479.16;613755;231;68603;-73
2022/05/27 02:10:09;;;;;;;;;;;;;;;23.24;74.36;97476.47;614054;228;63049;-73
2022/05/27 02:12:38;;;;;;;;;;;;;;;23.24;74.34;97473.79;613094;231;66177;-73
2022/05/27 02:15:07;;;;;;;;;;;;;;;23.24;74.46;97483.69;616055;230;68330;-73
2022/05/27 02:17:36;;;;;;;;;;;;;;;23.24;74.51;97476.47;616178;230;65161;-73
2022/05/27 02:20:05;;;;;;;;;;;;;;;23.24;74.41;97484.52;616294;230;65928;-73
2022/05/27 02:22:34;;;;;;;;;;;;;;;23.23;74.45;97474.05;616357;230;66137;-73
2022/05/27 02:25:03;;;;;;;;;;;;;;;23.22;74.59;97470.57;616283;230;63908;-73
2022/05/27 02:27:32;;;;;;;;;;;;;;;23.23;74.55;97471.37;616256;230;69303;-73
2022/05/27 02:30:01;;;;;;;;;;;;;;;23.23;74.37;97476.73;616328;230;64255;-73
2022/05/27 02:32:29;;;;;;;;;;;;;;;23.23;74.33;97464.12;616303;230;65418;-73
2022/05/27 02:35:14;;;;;;;;;;;;;;;23.22;74.42;97473.25;616335;230;68434;-73
2022/05/27 02:37:43;;;;;;;;;;;;;;;23.24;74.52;97472.96;616266;230;68316;-73
2022/05/27 02:40:13;;;;;;;;;;;;;;;23.22;74.41;97470.57;616328;229;62977;-73
2022/05/27 02:42:42;;;;;;;;;;;;;;;23.22;74.26;97475.14;614617;230;68828;-73
2022/05/27 02:45:11;;;;;;;;;;;;;;;23.22;74.38;97475.14;616240;229;66734;-73
2022/05/27 02:47:40;;;;;;;;;;;;;;;23.23;74.30;97474.05;616335;230;65108;-73
2022/05/27 02:50:23;;;;;;;;;;;;;;;23.22;74.36;97472.45;616180;230;66456;-74
2022/05/27 02:52:58;;;;;;;;;;;;;;;23.22;74.22;97475.94;616291;230;68466;-73
2022/05/27 02:55:42;;;;;;;;;;;;;;;23.22;74.35;97469.77;616298;230;65548;-73
2022/05/27 02:58:09;;;;;;;;;;;;;;;23.22;74.44;97475.14;616191;230;68586;-73
2022/05/27 03:00:39;;;;;;;;;;;;;;;23.22;74.33;97475.94;616353;230;68408;-73
2022/05/27 03:03:06;;;;;;;;;;;;;;;23.21;74.27;97463.58;616345;230;65378;-73
2022/05/27 03:05:35;;;;;;;;;;;;;;;23.21;74.33;97468.15;616303;230;68372;-73
2022/05/27 03:08:22;;;;;;;;;;;;;;;23.20;74.32;97472.72;616318;230;68455;-73
2022/05/27 03:10:51;;;;;;;;;;;;;;;23.21;74.49;97470.83;612989;229;63014;-74
2022/05/27 03:13:29;;;;;;;;;;;;;;;23.21;74.37;97476.20;609910;231;66714;-74
2022/05/27 03:16:10;;;;;;;;;;;;;;;23.21;74.46;97478.87;609701;231;68274;-75
2022/05/27 03:18:39;;;;;;;;;;;;;;;23.21;74.44;97484.23;609967;232;63074;-73
2022/05/27 03:21:24;;;;;;;;;;;;;;;23.20;74.37;97478.08;609726;232;66363;-73
2022/05/27 03:23:56;;;;;;;;;;;;;;;23.20;74.42;97482.64;609251;232;66438;-74
2022/05/27 03:26:42;;;;;;;;;;;;;;;23.19;74.41;97479.16;609980;232;65232;-74
2022/05/27 03:29:27;;;;;;;;;;;;;;;23.20;74.65;97482.64;610024;232;68683;-75
2022/05/27 03:31:57;;;;;;;;;;;;;;;23.20;74.61;97491.48;609992;232;68618;-74
2022/05/27 03:34:35;;;;;;;;;;;;;;;23.19;74.62;97483.70;610025;232;64077;-73
2022/05/27 03:37:04;;;;;;;;;;;;;;;23.20;74.69;97479.97;609962;232;66472;-74
2022/05/27 03:39:42;;;;;;;;;;;;;;;23.20;74.67;97482.64;609955;232;66304;-74
2022/05/27 03:42:11;;;;;;;;;;;;;;;23.19;74.61;97481.84;609979;231;65534;-75
2022/05/27 03:44:38;;;;;;;;;;;;;;;23.19;74.55;97483.70;609994;232;66590;-74
2022/05/27 03:47:06;;;;;;;;;;;;;;;23.19;74.54;97494.42;609959;232;68280;-74
2022/05/27 03:49:33;;;;;;;;;;;;;;;23.18;74.62;97485.59;610013;232;65106;-75
2022/05/27 03:52:05;;;;;;;;;;;;;;;23.19;74.56;97489.89;609994;232;68631;-74
2022/05/27 03:54:33;;;;;;;;;;;;;;;23.19;74.65;97489.89;610010;232;66472;-74
2022/05/27 03:57:01;;;;;;;;;;;;;;;23.19;74.67;97489.89;610005;232;62948;-74
2022/05/27 03:59:28;;;;;;;;;;;;;;;23.20;74.42;97488.01;609973;232;66447;-74
2022/05/27 04:01:56;;;;;;;;;;;;;;;23.18;74.62;97480.23;609993;232;66820;-74
2022/05/27 04:04:26;;;;;;;;;;;;;;;23.18;74.62;97485.59;609996;232;63221;-74
2022/05/27 04:06:53;;;;;;;;;;;;;;;23.18;74.62;97482.91;610000;232;68978;-74
2022/05/27 04:09:22;;;;;;;;;;;;;;;23.19;74.73;97481.02;609976;232;68326;-74
2022/05/27 04:11:51;;;;;;;;;;;;;;;23.19;74.82;97481.02;612681;230;63094;-74
2022/05/27 04:14:19;;;;;;;;;;;;;;;23.17;74.60;97478.63;616289;230;67584;-74
2022/05/27 04:16:48;;;;;;;;;;;;;;;23.18;74.73;97474.06;616350;230;66639;-74
2022/05/27 04:19:16;;;;;;;;;;;;;;;23.18;74.71;97477.55;616361;230;65377;-74
2022/05/27 04:21:44;;;;;;;;;;;;;;;23.17;74.68;97478.63;616356;230;68125;-71
2022/05/27 04:24:12;;;;;;;;;;;;;;;23.18;74.57;97474.86;616324;230;66426;-71
2022/05/27 04:26:39;;;;;;;;;;;;;;;23.18;74.66;97480.23;616328;230;63013;-71
2022/05/27 04:29:07;;;;;;;;;;;;;;;23.18;74.70;97476.75;616365;230;68770;-71
2022/05/27 04:31:34;;;;;;;;;;;;;;;23.17;74.63;97467.91;616329;230;66432;-71
2022/05/27 04:34:06;;;;;;;;;;;;;;;23.17;74.57;97467.91;616310;230;63037;-71
2022/05/27 04:36:31;;;;;;;;;;;;;;;23.17;74.62;97467.11;616185;230;66301;-71
2022/05/27 04:38:58;;;;;;;;;;;;;;;23.17;74.75;97467.11;616319;230;68475;-71
2022/05/27 04:41:26;;;;;;;;;;;;;;;23.17;74.63;97462.55;616410;230;65274;-71
2022/05/27 04:43:53;;;;;;;;;;;;;;;23.17;74.74;97462.55;616324;230;66336;-71
2022/05/27 04:46:21;;;;;;;;;;;;;;;23.16;74.71;97458.27;616329;230;68525;-71
2022/05/27 04:48:49;;;;;;;;;;;;;;;23.17;74.96;97462.55;616359;230;65451;-71
2022/05/27 04:51:17;;;;;;;;;;;;;;;23.16;74.81;97458.27;616302;230;68428;-71
2022/05/27 04:53:44;;;;;;;;;;;;;;;23.16;74.85;97463.63;616415;230;68523;-71
2022/05/27 04:56:12;;;;;;;;;;;;;;;23.15;75.04;97464.69;616301;230;62651;-71
2022/05/27 04:58:39;;;;;;;;;;;;;;;23.17;75.02;97472.47;616331;230;68671;-71
2022/05/27 05:01:07;;;;;;;;;;;;;;;23.16;74.93;97468.99;616342;230;66489;-71
2022/05/27 05:03:34;;;;;;;;;;;;;;;23.17;74.93;97473.27;616327;230;65358;-71
2022/05/27 05:06:02;;;;;;;;;;;;;;;23.16;74.88;97465.48;616312;230;68694;-71
2022/05/27 05:08:33;;;;;;;;;;;;;;;23.16;74.92;97466.31;616365;230;68305;-71
2022/05/27 05:11:01;;;;;;;;;;;;;;;23.16;75.15;97460.95;616261;229;65648;-71
2022/05/27 05:13:30;;;;;;;;;;;;;;;23.15;75.09;97458.53;616303;230;66523;-71
2022/05/27 05:15:58;;;;;;;;;;;;;;;23.14;75.05;97463.09;616249;230;67053;-71
2022/05/27 05:18:26;;;;;;;;;;;;;;;23.15;74.82;97462.01;616317;230;65119;-71
2022/05/27 05:20:53;;;;;;;;;;;;;;;23.15;74.97;97461.21;616327;230;68650;-71
2022/05/27 05:23:21;;;;;;;;;;;;;;;23.15;75.17;97463.89;616291;230;68878;-71
2022/05/27 05:25:48;;;;;;;;;;;;;;;23.14;75.22;97463.09;616293;230;65502;-71
2022/05/27 05:28:17;;;;;;;;;;;;;;;23.14;75.10;97468.45;616220;230;68697;-71
2022/05/27 05:30:44;;;;;;;;;;;;;;;23.14;75.22;97455.05;616152;230;68684;-71
2022/05/27 05:33:12;;;;;;;;;;;;;;;23.14;75.25;97457.73;616005;230;65119;-71
2022/05/27 05:35:39;;;;;;;;;;;;;;;23.13;75.19;97456.11;616033;230;68854;-71
2022/05/27 05:38:07;;;;;;;;;;;;;;;23.14;75.27;97456.94;616275;230;68561;-71
2022/05/27 05:40:35;;;;;;;;;;;;;;;23.14;75.01;97462.30;616297;230;65547;-71
2022/05/27 05:43:03;;;;;;;;;;;;;;;23.13;75.31;97466.83;616338;230;68856;-71
2022/05/27 05:45:30;;;;;;;;;;;;;;;23.14;75.46;97467.66;616355;230;68260;-71
2022/05/27 05:47:58;;;;;;;;;;;;;;;23.14;75.65;97467.66;616246;230;62964;-71
2022/05/27 05:50:27;;;;;;;;;;;;;;;23.13;75.50;97469.52;616272;230;66423;-71
2022/05/27 05:52:55;;;;;;;;;;;;;;;23.12;75.45;97465.23;616117;230;68772;-71
2022/05/27 05:55:27;;;;;;;;;;;;;;;23.13;75.03;97466.03;616351;227;45233;-71
2022/05/27 05:57:54;;;;;;;;;;;;;;;23.12;76.60;97475.16;616363;230;68585;-71
2022/05/27 06:00:33;;;;;;;;;;;;;;;23.12;75.62;97469.80;616302;230;67412;-74
2022/05/27 06:02:58;;;;;;;;;;;;;;;23.13;75.16;97477.55;615944;230;65064;-75
2022/05/27 06:05:25;;;;;;;;;;;;;;;23.13;74.90;97472.20;615237;230;68673;-73
2022/05/27 06:07:54;;;;;;;;;;;;;;;23.13;75.10;97471.40;616251;230;66408;-76
2022/05/27 06:10:22;;;;;;;;;;;;;;;23.10;75.99;97475.42;614193;230;65324;-76
2022/05/27 06:12:49;;;;;;;;;;;;;;;23.10;76.99;97472.75;609890;232;66421;-75
2022/05/27 06:15:17;;;;;;;;;;;;;;;23.09;76.25;97473.03;609741;230;66358;-75
2022/05/27 06:17:44;;;;;;;;;;;;;;;23.10;76.06;97469.27;609882;232;63033;-75
2022/05/27 06:20:12;;;;;;;;;;;;;;;23.11;75.07;97466.33;609880;232;66403;-75
2022/05/27 06:22:40;;;;;;;;;;;;;;;23.13;74.91;97471.40;609829;232;67971;-75
2022/05/27 06:25:08;;;;;;;;;;;;;;;23.13;74.73;97463.36;609868;232;65424;-74
2022/05/27 06:27:35;;;;;;;;;;;;;;;23.14;74.66;97462.30;609916;232;68483;-74
2022/05/27 06:35:34;;;;;;;;;;;;;;;23.14;75.88;97452.38;609950;232;68460;-73
2022/05/27 06:38:02;;;;;;;;;;;;;;;23.15;74.75;97466.58;609998;232;68396;-76
2022/05/27 06:40:30;;;;;;;;;;;;;;;23.14;73.72;97456.94;609761;232;65377;-74
2022/05/27 06:42:57;;;;;;;;;;;;;;;23.15;74.82;97453.97;609929;232;68297;-69
2022/05/27 06:45:24;;;;;;;;;;;;;;;23.16;74.87;97457.44;609910;230;68899;-70
2022/05/27 06:47:52;;;;;;;;;;;;;;;23.16;74.73;97446.72;609885;232;65430;-69
2022/05/27 06:50:19;;;;;;;;;;;;;;;23.16;74.68;97447.55;609930;232;66125;-71
2022/05/27 06:52:47;;;;;;;;;;;;;;;23.16;74.71;97458.27;609915;232;68537;-70
2022/05/27 06:55:15;;;;;;;;;;;;;;;23.15;74.74;97453.97;609809;232;65268;-70
2022/05/27 06:57:50;;;;;;;;;;;;;;;23.16;74.58;97452.91;609870;232;66752;-72
2022/05/27 07:00:18;;;;;;;;;;;;;;;23.17;74.83;97451.81;609856;232;66143;-73
2022/05/27 07:02:47;;;;;;;;;;;;;;;23.16;74.75;97452.91;609828;232;65428;-72
2022/05/27 07:05:14;;;;;;;;;;;;;;;23.17;74.59;97451.81;609898;232;68655;-72
2022/05/27 07:07:42;;;;;;;;;;;;;;;23.17;74.55;97451.81;609811;232;68495;-73
2022/05/27 07:10:09;;;;;;;;;;;;;;;23.18;74.77;97449.94;611100;230;63017;-72
2022/05/27 07:12:39;;;;;;;;;;;;;;;23.18;74.75;97448.05;614650;230;68624;-72
2022/05/27 07:15:07;;;;;;;;;;;;;;;23.17;74.77;97443.77;606904;232;68540;-72
2022/05/27 07:17:37;;;;;;;;;;;;;;;23.18;74.83;97448.05;607721;232;63269;-73
2022/05/27 07:20:04;;;;;;;;;;;;;;;23.17;74.72;97443.77;610193;232;66451;-79
2022/05/27 07:22:32;;;;;;;;;;;;;;;23.18;74.95;97431.96;610663;232;68459;-71
2022/05/27 07:24:59;;;;;;;;;;;;;;;23.18;74.74;97437.33;610746;232;63047;-73
2022/05/27 07:27:27;;;;;;;;;;;;;;;23.19;74.61;97432.76;610788;232;66470;-73
2022/05/27 07:29:54;;;;;;;;;;;;;;;23.19;74.74;97424.72;610670;232;66486;-72
2022/05/27 07:32:22;;;;;;;;;;;;;;;23.19;74.91;97424.72;610802;232;63185;-74
2022/05/27 07:34:49;;;;;;;;;;;;;;;23.24;71.81;97422.02;610669;232;65578;-74
2022/05/27 07:37:17;;;;;;;;;;;;;;;23.22;72.85;97416.95;610688;232;66202;-74
2022/05/27 07:39:44;;;;;;;;;;;;;;;23.21;74.37;97414.53;609983;232;63019;-74
2022/05/27 07:42:12;;;;;;;;;;;;;;;23.19;74.68;97417.50;610310;232;66712;-74
2022/05/27 07:44:40;;;;;;;;;;;;;;;23.19;74.57;97416.67;610520;232;66850;-75
2022/05/27 07:47:07;;;;;;;;;;;;;;;23.18;74.56;97415.08;610602;232;65386;-75
2022/05/27 07:49:35;;;;;;;;;;;;;;;23.17;74.69;97416.97;610674;232;68728;-73
2022/05/27 07:52:03;;;;;;;;;;;;;;;23.17;74.70;97408.92;610616;232;68484;-77
2022/05/27 07:54:31;;;;;;;;;;;;;;;23.17;74.80;97416.97;610663;232;65315;-74
2022/05/27 07:56:58;;;;;;;;;;;;;;;23.16;74.70;97412.69;610710;232;68901;-74
2022/05/27 07:59:26;;;;;;;;;;;;;;;23.16;74.03;97403.82;610703;232;68528;-74
2022/05/27 08:01:54;;;;;;;;;;;;;;;23.18;73.89;97415.08;610797;232;65176;-76
2022/05/27 08:04:21;;;;;;;;;;;;;;;23.18;70.81;97401.67;610689;232;66301;-73
2022/05/27 08:06:49;;;;;;;;;;;;;;;23.18;70.74;97399.79;610710;232;67311;-74
2022/05/27 08:09:17;;;;;;;;;;;;;;;23.23;69.90;97404.33;610835;232;63058;-72
2022/05/27 08:11:44;;;;;;;;;;;;;;;23.21;69.57;97401.12;610107;232;66685;-72
2022/05/27 08:14:12;;;;;;;;;;;;;;;23.21;72.46;97401.12;610206;232;68364;-73
2022/05/27 08:16:41;;;;;;;;;;;;;;;23.20;74.40;97397.64;610619;232;65085;-73
2022/05/27 08:19:09;;;;;;;;;;;;;;;23.19;75.61;97400.59;611436;232;68838;-79
2022/05/27 08:21:37;;;;;;;;;;;;;;;23.17;76.69;97397.40;611429;232;68642;-72
2022/05/27 08:24:05;;;;;;;;;;;;;;;23.16;75.46;97390.42;611564;232;63071;-76
2022/05/27 08:26:32;;;;;;;;;;;;;;;23.18;75.85;97399.79;611036;232;68404;-76
2022/05/27 08:29:03;;;;;;;;;;;;;;;23.18;77.07;97393.63;611545;232;68542;-77
2022/05/27 08:31:30;;;;;;;;;;;;;;;23.17;77.63;97392.84;611552;232;64983;-77
2022/05/27 08:39:31;;;;;;;;;;;;;;;23.16;78.40;97380.52;611518;232;65218;-78
2022/05/27 08:42:09;;;;;;;;;;;;;;;23.16;78.43;97382.38;611404;232;66579;-80
2022/05/27 08:44:39;;;;;;;;;;;;;;;23.16;78.57;97391.24;611495;232;68660;-76
2022/05/27 08:47:26;;;;;;;;;;;;;;;23.16;78.63;97385.88;610416;232;65140;-75
2022/05/27 08:49:57;;;;;;;;;;;;;;;23.16;78.66;97385.05;611437;232;67405;-75
2022/05/27 08:52:26;;;;;;;;;;;;;;;23.16;78.75;97387.73;610511;232;68385;-74
2022/05/27 08:54:55;;;;;;;;;;;;;;;23.15;78.57;97394.98;611430;232;63065;-75
2022/05/27 09:00:15;;;;;;;;;;;;;;;23.15;78.78;97392.30;611457;232;69026;-81
2022/05/27 09:02:48;;;;;;;;;;;;;;;23.16;78.86;97398.46;611017;232;65339;-76
2022/05/27 09:05:23;;;;;;;;;;;;;;;23.16;78.79;97398.46;611475;232;68788;-76
2022/05/27 09:07:58;;;;;;;;;;;;;;;23.15;78.52;97394.98;608805;232;68543;-72
2022/05/27 09:10:33;;;;;;;;;;;;;;;23.16;78.44;97401.97;611215;231;65223;-75
2022/05/27 09:13:07;;;;;;;;;;;;;;;23.16;78.42;97393.09;610660;232;69696;-76
2022/05/27 09:15:48;;;;;;;;;;;;;;;23.15;78.52;97389.62;610450;232;66438;-76
2022/05/27 09:18:20;;;;;;;;;;;;;;;23.16;78.39;97401.14;610687;232;63231;-75
2022/05/27 09:20:52;;;;;;;;;;;;;;;23.15;78.53;97389.62;610727;232;66454;-76
2022/05/27 09:23:21;;;;;;;;;;;;;;;23.16;78.66;97383.20;610523;232;66494;-75
2022/05/27 09:26:02;;;;;;;;;;;;;;;23.16;78.62;97391.24;610426;232;65187;-76
2022/05/27 09:28:31;;;;;;;;;;;;;;;23.16;78.67;97385.88;610663;232;68830;-75
2022/05/27 09:31:00;;;;;;;;;;;;;;;23.16;78.59;97375.16;609752;232;68262;-76
2022/05/27 09:33:30;;;;;;;;;;;;;;;23.16;78.73;97374.33;610665;232;62998;-75
2022/05/27 09:36:11;;;;;;;;;;;;;;;23.15;78.70;97378.89;610762;232;66597;-76
2022/05/27 09:38:40;;;;;;;;;;;;;;;23.15;78.51;97370.85;610709;231;66353;-75
2022/05/27 09:41:12;;;;;;;;;;;;;;;23.16;78.47;97375.16;610606;232;63170;-74
2022/05/27 09:43:41;;;;;;;;;;;;;;;23.18;73.16;97367.61;610677;232;68641;-75
2022/05/27 09:46:10;;;;;;;;;;;;;;;23.19;74.43;97374.60;610782;232;66663;-73
2022/05/27 09:48:38;;;;;;;;;;;;;;;23.18;75.50;97364.94;610750;232;63197;-77
2022/05/27 09:51:07;;;;;;;;;;;;;;;23.18;75.67;97366.82;610772;232;66406;-77
2022/05/27 09:53:39;;;;;;;;;;;;;;;23.17;76.53;97360.66;610757;232;68670;-73
2022/05/27 09:56:08;;;;;;;;;;;;;;;23.16;76.96;97363.61;610791;232;63164;-73
2022/05/27 09:58:38;;;;;;;;;;;;;;;23.15;76.96;97367.38;610782;232;68711;-72
2022/05/27 10:01:22;;;;;;;;;;;;;;;23.15;76.80;97359.33;610803;232;66414;-72
2022/05/27 10:04:01;;;;;;;;;;;;;;;23.14;76.73;97355.06;610779;232;65381;-73
2022/05/27 10:06:30;;;;;;;;;;;;;;;23.13;76.26;97351.55;610749;232;66469;-73
2022/05/27 10:08:59;;;;;;;;;;;;;;;23.12;75.93;97341.92;610251;232;66262;-76
2022/05/27 10:11:28;;;;;;;;;;;;;;;23.13;74.73;97346.19;610379;232;63273;-79
2022/05/27 10:14:10;;;;;;;;;;;;;;;23.15;74.82;97348.61;611506;232;68612;-75
2022/05/27 10:16:39;;;;;;;;;;;;;;;23.11;70.12;97340.33;611417;232;68772;-80
2022/05/27 10:19:10;;;;;;;;;;;;;;;23.17;72.87;97346.46;611375;232;65431;-75
2022/05/27 10:21:51;;;;;;;;;;;;;;;23.18;74.53;97340.80;611391;232;68538;-74
2022/05/27 10:24:23;;;;;;;;;;;;;;;23.17;75.82;97333.84;611456;232;68399;-73
2022/05/27 10:27:01;;;;;;;;;;;;;;;23.16;76.12;97334.94;611347;232;66263;-75
2022/05/27 10:29:26;;;;;;;;;;;;;;;23.16;76.34;97326.07;610201;232;66837;-74
2022/05/27 10:31:55;;;;;;;;;;;;;;;23.16;76.34;97329.58;611517;232;66190;-74
2022/05/27 10:34:40;;;;;;;;;;;;;;;23.16;76.45;97329.58;611376;232;65195;-68
2022/05/27 10:37:09;;;;;;;;;;;;;;;23.18;75.16;97330.08;611432;232;66366;-69
2022/05/27 10:39:41;;;;;;;;;;;;;;;23.19;73.87;97326.34;611506;232;68384;-73
2022/05/27 10:42:10;;;;;;;;;;;;;;;23.20;75.04;97322.56;611266;232;65133;-67
2022/05/27 10:44:45;;;;;;;;;;;;;;;23.23;70.92;97305.13;611396;232;68601;-66
2022/05/27 10:47:23;;;;;;;;;;;;;;;23.22;72.52;97308.90;611194;232;68470;-70
2022/05/27 10:50:00;;;;;;;;;;;;;;;23.20;74.49;97305.69;610860;232;62962;-70
2022/05/27 10:52:35;;;;;;;;;;;;;;;23.19;75.26;97306.74;611233;232;68297;-66
2022/05/27 10:55:22;;;;;;;;;;;;;;;23.17;75.90;97308.92;611522;232;68487;-72
2022/05/27 11:03:34;;;;;;;;;;;;;;;23.16;76.05;97296.58;611333;232;68731;-70
2022/05/27 11:06:09;;;;;;;;;;;;;;;23.16;75.92;97292.05;611417;232;63039;-71
2022/05/27 11:08:38;;;;;;;;;;;;;;;23.18;76.61;97289.06;611436;232;66458;-69
2022/05/27 11:11:25;;;;;;;;;;;;;;;23.17;76.86;97282.91;609187;232;66478;-70
2022/05/27 11:16:50;;;;;;;;;;;;;;;23.16;77.30;97283.17;610066;232;68685;-73
2022/05/27 11:19:19;;;;;;;;;;;;;;;23.16;77.43;97281.32;610119;232;66421;-73
2022/05/27 11:22:04;;;;;;;;;;;;;;;23.16;77.54;97275.13;609679;232;65306;-73
2022/05/27 11:24:33;;;;;;;;;;;;;;;23.16;77.75;97273.28;610069;232;68701;-73
2022/05/27 11:27:02;;;;;;;;;;;;;;;23.16;78.00;97270.59;609951;232;66177;-73
2022/05/27 11:29:44;;;;;;;;;;;;;;;23.16;78.13;97270.59;601685;232;63311;-74
2022/05/27 11:32:28;;;;;;;;;;;;;;;23.16;78.13;97259.88;610086;232;68533;-73
2022/05/27 11:35:00;;;;;;;;;;;;;;;23.16;78.30;97259.88;609317;232;68959;-73
2022/05/27 11:37:35;;;;;;;;;;;;;;;23.16;78.31;97249.15;609979;232;62966;-74
2022/05/27 11:40:13;;;;;;;;;;;;;;;23.15;78.20;97242.16;609798;232;66454;-74
2022/05/27 11:42:49;;;;;;;;;;;;;;;23.16;78.05;97246.47;610114;232;68552;-73
2022/05/27 11:45:18;;;;;;;;;;;;;;;23.16;78.13;97245.64;603364;232;65370;-75
2022/05/27 11:47:54;;;;;;;;;;;;;;;23.14;72.41;97235.22;610260;232;67388;-75
2022/05/27 11:50:40;;;;;;;;;;;;;;;23.18;77.18;97238.92;610226;232;68435;-75
2022/05/27 11:53:09;;;;;;;;;;;;;;;23.21;75.55;97227.64;610135;232;63099;-74
2022/05/27 11:55:47;;;;;;;;;;;;;;;23.29;70.93;97226.23;606140;232;66135;-74
2022/05/27 11:58:31;;;;;;;;;;;;;;;23.27;73.21;97225.71;596606;237;66451;-74
2022/05/27 12:01:09;;;;;;;;;;;;;;;23.24;74.41;97221.74;606362;233;65443;-74
2022/05/27 12:03:38;;;;;;;;;;;;;;;23.21;76.72;97216.91;609180;232;68959;-74
2022/05/27 12:06:12;;;;;;;;;;;;;;;23.20;77.41;97214.53;609450;232;68517;-75
2022/05/27 12:08:50;;;;;;;;;;;;;;;23.19;74.07;97203.01;609876;232;65192;-74
2022/05/27 12:11:19;;;;;;;;;;;;;;;23.20;72.26;97212.64;609148;232;66537;-70
2022/05/27 12:13:48;;;;;;;;;;;;;;;23.20;75.36;97212.64;611416;232;69442;-71
2022/05/27 12:16:17;;;;;;;;;;;;;;;23.20;76.70;97206.48;611538;230;63235;-74
2022/05/27 12:19:04;;;;;;;;;;;;;;;23.19;77.16;97203.01;611486;232;67396;-74
2022/05/27 12:21:33;;;;;;;;;;;;;;;23.18;77.71;97204.07;611453;232;66473;-74
2022/05/27 12:24:10;;;;;;;;;;;;;;;23.17;77.95;97199.80;611071;232;63025;-73
2022/05/27 12:26:38;;;;;;;;;;;;;;;23.18;78.10;97195.23;611223;232;68720;-74
2022/05/27 12:29:07;;;;;;;;;;;;;;;23.17;78.09;97189.08;611407;232;68578;-74
2022/05/27 12:31:35;;;;;;;;;;;;;;;23.18;78.08;97196.03;611558;232;65475;-74
2022/05/27 12:34:21;;;;;;;;;;;;;;;23.17;78.15;97194.44;611359;232;68979;-74
2022/05/27 12:36:48;;;;;;;;;;;;;;;23.18;78.17;97193.34;595380;237;68559;-74
2022/05/27 12:39:17;;;;;;;;;;;;;;;23.19;76.57;97194.14;606242;232;65430;-73
2022/05/27 12:41:45;;;;;;;;;;;;;;;23.20;78.44;97193.88;611251;232;68804;-74
2022/05/27 12:44:24;;;;;;;;;;;;;;;23.19;78.54;97186.09;611449;232;68345;-71
2022/05/27 12:46:52;;;;;;;;;;;;;;;23.18;78.62;97177.26;611511;232;65329;-73
2022/05/27 12:49:41;;;;;;;;;;;;;;;23.19;78.69;97173.52;611266;232;68965;-74
2022/05/27 12:52:10;;;;;;;;;;;;;;;23.19;78.69;97173.52;611437;232;66930;-69
2022/05/27 12:54:50;;;;;;;;;;;;;;;23.20;78.71;97166.27;610362;232;63030;-71
2022/05/27 13:03:33;;;;;;;;;;;;;;;23.19;78.66;97159.28;611475;232;66330;-70
2022/05/27 13:06:05;;;;;;;;;;;;;;;23.18;78.62;97157.70;611452;232;68326;-69
2022/05/27 13:08:34;;;;;;;;;;;;;;;23.18;78.56;97150.45;611400;232;68448;-69
2022/05/27 13:11:02;;;;;;;;;;;;;;;23.18;78.38;97144.30;610366;231;63377;-69
2022/05/27 13:13:30;;;;;;;;;;;;;;;23.17;78.35;97140.81;608944;232;66127;-69
2022/05/27 13:16:08;;;;;;;;;;;;;;;23.18;78.33;97138.93;610780;232;66361;-69
2022/05/27 13:18:37;;;;;;;;;;;;;;;23.18;78.19;97126.32;610669;232;65340;-70
2022/05/27 13:21:07;;;;;;;;;;;;;;;23.18;78.20;97128.20;610791;232;66581;-70
2022/05/27 13:23:36;;;;;;;;;;;;;;;23.18;78.12;97115.59;610833;232;68415;-70
2022/05/27 13:26:08;;;;;;;;;;;;;;;23.19;78.12;97116.39;610318;232;66271;-71
2022/05/27 13:28:38;;;;;;;;;;;;;;;23.20;78.09;97115.33;610630;232;66386;-71
2022/05/27 13:31:12;;;;;;;;;;;;;;;23.19;78.08;97111.03;610710;232;68525;-71
2022/05/27 13:33:47;;;;;;;;;;;;;;;23.19;78.01;97109.17;610754;232;63269;-70
2022/05/27 13:36:22;;;;;;;;;;;;;;;23.19;78.01;97101.12;610786;232;68640;-70
2022/05/27 13:38:51;;;;;;;;;;;;;;;23.20;78.09;97096.56;610796;232;66483;-70